Buffalo Niagara International Airport
KBUF : rendu visible

Aérodrome :











RETROUVEZ-NOUS SUR...

 
LOGIN :

S'inscrire | Disclaimer

   EN    FR    IT 

 









Légende :    VFR   VFR Marginal   IFR   IFR Intensif   IFR Très Intensif
Visi : 
Plafond : 
>= 8 km
>= 3000ft
5 à 8 km
1000 à 3000 ft
1500m à 5 km
500 à 1000 ft
800 à 1500m
200 à 500 ft
< 800m
< 200 ft
Symboles :   Orages  Brouillard  Fortes neiges  Fortes précipitations  Vent > 20 kt






- Altitude de l'aérodrome : 728 ft
- Code IATA : BUF


KBUF - Buffalo Niagara International

DERNIER METAR :
  • 242154Z 19009G18KT 10SM FEW060 FEW085 FEW100 SCT250 28/16 A2997 RMK AO2 SLP145 T02830161

METARs EXPIRÉS :
  • 242054Z VRB06KT 10SM R23/5500VP6000FT FEW055 FEW070 FEW180 SCT250 29/16 A3000 RMK AO2 SLP153 T02890156 58016

TAF KBUF
Valide du 24 à 21h jusqu'au 25 à 18h UTC


242126Z 2421/2518 22008KT P6SM SCT050 BKN250
FM250100 19008KT P6SM VCSH BKN050
FM250500 19010KT 6SM -SHRA BKN040
FM251000 20010KT P6SM BKN050
FM251400 22012KT P6SM FEW250
FIR KZOB / Amérique du Nord



MET'MAP, la Météo Aéronautique d'un coup d'oeil ! - Copyright ORBIFLY Décembre 2007 - Disclaimer

ORBIFLY MET'MAP TEAM :

Programmation & Développement : Alexandra Zaïnal
Sur une idée originale de : Baudouin d'Aumeries
Assistance à la programmation : Marc-Olivier Méhu
Soutien technique & logistique : Manuel Goepfert

Contact : metmap@orbifly.com




SOURCES & CREDITS :

   NOAA       Earth
Advisory